sensor_id;sensor_type;location;lat;lon;timestamp;P1;durP1;ratioP1;P2;durP2;ratioP2
61397;SDS011;47267;48.130;-2.040;2023-04-01T00:00:54;4.53;;;1.45;;
61397;SDS011;47267;48.130;-2.040;2023-04-01T00:03:21;5.85;;;1.60;;
61397;SDS011;47267;48.130;-2.040;2023-04-01T00:05:48;4.35;;;1.58;;
61397;SDS011;47267;48.130;-2.040;2023-04-01T00:08:14;4.45;;;1.55;;
61397;SDS011;47267;48.130;-2.040;2023-04-01T00:10:40;5.25;;;1.70;;
61397;SDS011;47267;48.130;-2.040;2023-04-01T00:13:06;5.18;;;1.95;;
61397;SDS011;47267;48.130;-2.040;2023-04-01T00:15:32;5.75;;;1.60;;
61397;SDS011;47267;48.130;-2.040;2023-04-01T00:17:58;4.55;;;1.80;;
61397;SDS011;47267;48.130;-2.040;2023-04-01T00:20:23;4.03;;;1.45;;
61397;SDS011;47267;48.130;-2.040;2023-04-01T00:22:49;4.35;;;1.63;;
61397;SDS011;47267;48.130;-2.040;2023-04-01T00:25:15;3.45;;;1.40;;
61397;SDS011;47267;48.130;-2.040;2023-04-01T00:27:41;3.92;;;1.50;;
61397;SDS011;47267;48.130;-2.040;2023-04-01T00:30:08;4.80;;;1.58;;
61397;SDS011;47267;48.130;-2.040;2023-04-01T00:32:34;5.03;;;1.77;;
61397;SDS011;47267;48.130;-2.040;2023-04-01T00:35:00;5.53;;;1.60;;
61397;SDS011;47267;48.130;-2.040;2023-04-01T00:37:26;5.88;;;1.58;;
61397;SDS011;47267;48.130;-2.040;2023-04-01T00:39:53;5.30;;;1.83;;
61397;SDS011;47267;48.130;-2.040;2023-04-01T00:42:19;5.20;;;1.67;;
61397;SDS011;47267;48.130;-2.040;2023-04-01T00:44:47;5.78;;;1.70;;
61397;SDS011;47267;48.130;-2.040;2023-04-01T00:47:15;5.07;;;1.67;;
61397;SDS011;47267;48.130;-2.040;2023-04-01T00:49:42;3.40;;;1.30;;
61397;SDS011;47267;48.130;-2.040;2023-04-01T00:52:14;6.07;;;1.80;;
61397;SDS011;47267;48.130;-2.040;2023-04-01T00:54:45;5.60;;;1.80;;
61397;SDS011;47267;48.130;-2.040;2023-04-01T00:57:13;4.82;;;1.75;;
61397;SDS011;47267;48.130;-2.040;2023-04-01T00:59:45;4.43;;;1.60;;
61397;SDS011;47267;48.130;-2.040;2023-04-01T01:02:13;4.03;;;1.50;;
61397;SDS011;47267;48.130;-2.040;2023-04-01T01:04:40;4.57;;;1.27;;
61397;SDS011;47267;48.130;-2.040;2023-04-01T01:09:59;4.68;;;1.50;;
61397;SDS011;47267;48.130;-2.040;2023-04-01T01:12:50;3.78;;;1.52;;
61397;SDS011;47267;48.130;-2.040;2023-04-01T01:15:34;3.47;;;1.40;;
61397;SDS011;47267;48.130;-2.040;2023-04-01T01:18:37;4.63;;;1.40;;
61397;SDS011;47267;48.130;-2.040;2023-04-01T01:21:20;3.88;;;1.35;;
61397;SDS011;47267;48.130;-2.040;2023-04-01T01:27:10;3.30;;;1.27;;
61397;SDS011;47267;48.130;-2.040;2023-04-01T01:32:29;3.95;;;1.45;;
61397;SDS011;47267;48.130;-2.040;2023-04-01T01:35:33;3.28;;;1.35;;
61397;SDS011;47267;48.130;-2.040;2023-04-01T01:38:12;4.65;;;1.33;;
61397;SDS011;47267;48.130;-2.040;2023-04-01T01:40:42;4.10;;;1.45;;
61397;SDS011;47267;48.130;-2.040;2023-04-01T01:43:12;4.70;;;1.50;;
61397;SDS011;47267;48.130;-2.040;2023-04-01T01:45:43;3.20;;;1.43;;
61397;SDS011;47267;48.130;-2.040;2023-04-01T01:48:13;2.88;;;1.25;;
61397;SDS011;47267;48.130;-2.040;2023-04-01T01:50:41;5.72;;;1.60;;
61397;SDS011;47267;48.130;-2.040;2023-04-01T01:53:11;3.38;;;1.30;;
61397;SDS011;47267;48.130;-2.040;2023-04-01T01:55:41;3.63;;;1.30;;
61397;SDS011;47267;48.130;-2.040;2023-04-01T01:58:23;3.00;;;1.40;;
61397;SDS011;47267;48.130;-2.040;2023-04-01T02:01:14;4.47;;;1.48;;
61397;SDS011;47267;48.130;-2.040;2023-04-01T02:03:51;4.18;;;1.40;;
61397;SDS011;47267;48.130;-2.040;2023-04-01T02:06:18;3.58;;;1.27;;
61397;SDS011;47267;48.130;-2.040;2023-04-01T02:11:29;4.03;;;1.67;;
61397;SDS011;47267;48.130;-2.040;2023-04-01T02:14:06;2.88;;;1.13;;
61397;SDS011;47267;48.130;-2.040;2023-04-01T02:17:22;5.03;;;1.35;;
61397;SDS011;47267;48.130;-2.040;2023-04-01T02:19:38;4.72;;;1.40;;
61397;SDS011;47267;48.130;-2.040;2023-04-01T02:22:08;4.80;;;1.30;;
61397;SDS011;47267;48.130;-2.040;2023-04-01T02:24:38;3.53;;;1.50;;
61397;SDS011;47267;48.130;-2.040;2023-04-01T02:27:06;3.45;;;1.50;;
61397;SDS011;47267;48.130;-2.040;2023-04-01T02:29:36;6.00;;;1.80;;
61397;SDS011;47267;48.130;-2.040;2023-04-01T02:32:02;3.92;;;1.38;;
61397;SDS011;47267;48.130;-2.040;2023-04-01T02:34:29;4.65;;;1.60;;
61397;SDS011;47267;48.130;-2.040;2023-04-01T02:36:55;4.43;;;1.17;;
61397;SDS011;47267;48.130;-2.040;2023-04-01T02:39:25;4.97;;;1.17;;
61397;SDS011;47267;48.130;-2.040;2023-04-01T02:44:19;4.43;;;1.40;;
61397;SDS011;47267;48.130;-2.040;2023-04-01T02:46:45;4.03;;;1.65;;
61397;SDS011;47267;48.130;-2.040;2023-04-01T02:49:10;3.80;;;1.40;;
61397;SDS011;47267;48.130;-2.040;2023-04-01T02:51:37;2.90;;;1.10;;
61397;SDS011;47267;48.130;-2.040;2023-04-01T02:54:02;3.92;;;1.33;;
61397;SDS011;47267;48.130;-2.040;2023-04-01T02:56:28;4.38;;;1.40;;
61397;SDS011;47267;48.130;-2.040;2023-04-01T02:58:57;2.65;;;1.38;;
61397;SDS011;47267;48.130;-2.040;2023-04-01T03:01:23;3.28;;;1.27;;
61397;SDS011;47267;48.130;-2.040;2023-04-01T03:03:48;5.22;;;1.60;;
61397;SDS011;47267;48.130;-2.040;2023-04-01T03:06:15;3.53;;;1.35;;
61397;SDS011;47267;48.130;-2.040;2023-04-01T03:08:41;3.08;;;1.00;;
61397;SDS011;47267;48.130;-2.040;2023-04-01T03:11:07;4.05;;;1.50;;
61397;SDS011;47267;48.130;-2.040;2023-04-01T03:13:37;3.15;;;1.15;;
61397;SDS011;47267;48.130;-2.040;2023-04-01T03:16:02;4.55;;;1.50;;
61397;SDS011;47267;48.130;-2.040;2023-04-01T03:18:28;3.80;;;1.35;;
61397;SDS011;47267;48.130;-2.040;2023-04-01T03:20:54;2.88;;;1.15;;
61397;SDS011;47267;48.130;-2.040;2023-04-01T03:23:20;4.35;;;1.35;;
61397;SDS011;47267;48.130;-2.040;2023-04-01T03:25:46;3.95;;;1.48;;
61397;SDS011;47267;48.130;-2.040;2023-04-01T03:28:13;4.85;;;1.38;;
61397;SDS011;47267;48.130;-2.040;2023-04-01T03:30:39;5.15;;;1.70;;
61397;SDS011;47267;48.130;-2.040;2023-04-01T03:33:05;3.17;;;1.23;;
61397;SDS011;47267;48.130;-2.040;2023-04-01T03:35:31;3.08;;;1.25;;
61397;SDS011;47267;48.130;-2.040;2023-04-01T03:37:57;5.15;;;1.38;;
61397;SDS011;47267;48.130;-2.040;2023-04-01T03:40:23;4.55;;;1.20;;
61397;SDS011;47267;48.130;-2.040;2023-04-01T03:42:49;4.40;;;1.50;;
61397;SDS011;47267;48.130;-2.040;2023-04-01T03:45:15;3.63;;;1.20;;
61397;SDS011;47267;48.130;-2.040;2023-04-01T03:47:41;3.63;;;1.13;;
61397;SDS011;47267;48.130;-2.040;2023-04-01T03:50:07;3.38;;;1.15;;
61397;SDS011;47267;48.130;-2.040;2023-04-01T03:52:33;3.70;;;1.27;;
61397;SDS011;47267;48.130;-2.040;2023-04-01T03:55:00;3.85;;;1.30;;
61397;SDS011;47267;48.130;-2.040;2023-04-01T03:57:26;3.03;;;1.02;;
61397;SDS011;47267;48.130;-2.040;2023-04-01T03:59:52;3.45;;;1.20;;
61397;SDS011;47267;48.130;-2.040;2023-04-01T04:02:17;2.90;;;1.13;;
61397;SDS011;47267;48.130;-2.040;2023-04-01T04:04:43;2.83;;;1.20;;
61397;SDS011;47267;48.130;-2.040;2023-04-01T04:07:12;3.83;;;1.10;;
61397;SDS011;47267;48.130;-2.040;2023-04-01T04:09:37;3.00;;;1.20;;
61397;SDS011;47267;48.130;-2.040;2023-04-01T04:12:03;4.03;;;1.20;;
61397;SDS011;47267;48.130;-2.040;2023-04-01T04:14:30;2.92;;;1.10;;
61397;SDS011;47267;48.130;-2.040;2023-04-01T04:16:56;3.53;;;1.13;;
61397;SDS011;47267;48.130;-2.040;2023-04-01T04:19:22;3.05;;;1.15;;
61397;SDS011;47267;48.130;-2.040;2023-04-01T04:21:48;3.70;;;1.33;;
61397;SDS011;47267;48.130;-2.040;2023-04-01T04:24:14;5.32;;;1.52;;
61397;SDS011;47267;48.130;-2.040;2023-04-01T04:26:40;3.28;;;1.30;;
61397;SDS011;47267;48.130;-2.040;2023-04-01T04:29:05;3.20;;;1.38;;
61397;SDS011;47267;48.130;-2.040;2023-04-01T04:31:31;2.97;;;1.13;;
61397;SDS011;47267;48.130;-2.040;2023-04-01T04:33:58;2.70;;;1.13;;
61397;SDS011;47267;48.130;-2.040;2023-04-01T04:36:26;3.42;;;1.00;;
61397;SDS011;47267;48.130;-2.040;2023-04-01T04:38:51;3.53;;;1.20;;
61397;SDS011;47267;48.130;-2.040;2023-04-01T04:41:18;2.80;;;1.27;;
61397;SDS011;47267;48.130;-2.040;2023-04-01T04:43:51;3.55;;;1.20;;
61397;SDS011;47267;48.130;-2.040;2023-04-01T04:46:18;3.25;;;1.00;;
61397;SDS011;47267;48.130;-2.040;2023-04-01T04:48:44;3.90;;;1.13;;
61397;SDS011;47267;48.130;-2.040;2023-04-01T04:51:16;3.53;;;1.23;;
61397;SDS011;47267;48.130;-2.040;2023-04-01T04:53:44;4.32;;;1.17;;
61397;SDS011;47267;48.130;-2.040;2023-04-01T04:56:10;4.43;;;1.48;;
61397;SDS011;47267;48.130;-2.040;2023-04-01T04:58:36;2.45;;;1.20;;
61397;SDS011;47267;48.130;-2.040;2023-04-01T05:01:09;3.20;;;1.30;;
61397;SDS011;47267;48.130;-2.040;2023-04-01T05:03:37;3.35;;;1.20;;
61397;SDS011;47267;48.130;-2.040;2023-04-01T05:06:03;3.63;;;1.20;;
61397;SDS011;47267;48.130;-2.040;2023-04-01T05:08:30;3.85;;;1.08;;
61397;SDS011;47267;48.130;-2.040;2023-04-01T05:10:57;2.72;;;1.10;;
61397;SDS011;47267;48.130;-2.040;2023-04-01T05:13:24;1.55;;;0.80;;
61397;SDS011;47267;48.130;-2.040;2023-04-01T05:15:50;3.83;;;1.27;;
61397;SDS011;47267;48.130;-2.040;2023-04-01T05:18:15;4.15;;;1.50;;
61397;SDS011;47267;48.130;-2.040;2023-04-01T05:20:52;3.20;;;1.15;;
61397;SDS011;47267;48.130;-2.040;2023-04-01T05:23:19;3.22;;;1.02;;
61397;SDS011;47267;48.130;-2.040;2023-04-01T05:25:46;3.63;;;1.02;;
61397;SDS011;47267;48.130;-2.040;2023-04-01T05:28:17;3.03;;;1.20;;
61397;SDS011;47267;48.130;-2.040;2023-04-01T05:30:43;3.17;;;0.95;;
61397;SDS011;47267;48.130;-2.040;2023-04-01T05:33:10;3.60;;;1.27;;
61397;SDS011;47267;48.130;-2.040;2023-04-01T05:35:37;3.58;;;1.10;;
61397;SDS011;47267;48.130;-2.040;2023-04-01T05:38:02;4.15;;;1.30;;
61397;SDS011;47267;48.130;-2.040;2023-04-01T05:40:28;3.45;;;1.10;;
61397;SDS011;47267;48.130;-2.040;2023-04-01T05:42:55;2.95;;;1.00;;
61397;SDS011;47267;48.130;-2.040;2023-04-01T05:45:21;3.85;;;1.08;;
61397;SDS011;47267;48.130;-2.040;2023-04-01T05:47:47;2.00;;;1.05;;
61397;SDS011;47267;48.130;-2.040;2023-04-01T05:50:12;3.67;;;0.90;;
61397;SDS011;47267;48.130;-2.040;2023-04-01T05:52:38;3.05;;;1.25;;
61397;SDS011;47267;48.130;-2.040;2023-04-01T05:55:05;2.45;;;0.88;;
61397;SDS011;47267;48.130;-2.040;2023-04-01T05:57:31;3.40;;;1.00;;
61397;SDS011;47267;48.130;-2.040;2023-04-01T05:59:57;3.70;;;1.13;;
61397;SDS011;47267;48.130;-2.040;2023-04-01T06:02:22;4.88;;;1.08;;
61397;SDS011;47267;48.130;-2.040;2023-04-01T06:04:48;4.68;;;1.33;;
61397;SDS011;47267;48.130;-2.040;2023-04-01T06:07:21;3.35;;;0.95;;
61397;SDS011;47267;48.130;-2.040;2023-04-01T06:09:47;3.53;;;1.10;;
61397;SDS011;47267;48.130;-2.040;2023-04-01T06:34:42;3.83;;;0.90;;
61397;SDS011;47267;48.130;-2.040;2023-04-01T06:46:24;2.83;;;0.77;;
61397;SDS011;47267;48.130;-2.040;2023-04-01T06:54:04;3.53;;;0.65;;
61397;SDS011;47267;48.130;-2.040;2023-04-01T06:56:36;2.92;;;0.80;;
61397;SDS011;47267;48.130;-2.040;2023-04-01T06:59:07;3.05;;;1.02;;
61397;SDS011;47267;48.130;-2.040;2023-04-01T07:01:51;2.80;;;1.20;;
61397;SDS011;47267;48.130;-2.040;2023-04-01T07:04:20;2.50;;;1.00;;
61397;SDS011;47267;48.130;-2.040;2023-04-01T07:06:56;4.47;;;1.05;;
61397;SDS011;47267;48.130;-2.040;2023-04-01T07:09:32;4.88;;;1.40;;
61397;SDS011;47267;48.130;-2.040;2023-04-01T07:12:04;4.50;;;1.00;;
61397;SDS011;47267;48.130;-2.040;2023-04-01T07:14:39;3.63;;;1.05;;
61397;SDS011;47267;48.130;-2.040;2023-04-01T07:17:23;3.13;;;1.27;;
61397;SDS011;47267;48.130;-2.040;2023-04-01T07:19:56;3.22;;;1.02;;
61397;SDS011;47267;48.130;-2.040;2023-04-01T07:25:25;3.58;;;1.13;;
61397;SDS011;47267;48.130;-2.040;2023-04-01T07:27:52;3.95;;;0.85;;
61397;SDS011;47267;48.130;-2.040;2023-04-01T07:30:22;2.58;;;1.05;;
61397;SDS011;47267;48.130;-2.040;2023-04-01T07:35:28;3.72;;;1.13;;
61397;SDS011;47267;48.130;-2.040;2023-04-01T07:57:06;3.97;;;0.85;;
61397;SDS011;47267;48.130;-2.040;2023-04-01T08:05:50;9.32;;;1.27;;
61397;SDS011;47267;48.130;-2.040;2023-04-01T08:08:33;4.97;;;1.17;;
61397;SDS011;47267;48.130;-2.040;2023-04-01T08:19:56;5.00;;;1.27;;
61397;SDS011;47267;48.130;-2.040;2023-04-01T08:22:40;2.78;;;1.00;;
61397;SDS011;47267;48.130;-2.040;2023-04-01T08:25:25;3.42;;;1.00;;
61397;SDS011;47267;48.130;-2.040;2023-04-01T08:27:57;5.45;;;0.93;;
61397;SDS011;47267;48.130;-2.040;2023-04-01T08:30:52;3.67;;;1.10;;
61397;SDS011;47267;48.130;-2.040;2023-04-01T08:33:26;3.78;;;1.05;;
61397;SDS011;47267;48.130;-2.040;2023-04-01T08:36:15;4.45;;;1.15;;
61397;SDS011;47267;48.130;-2.040;2023-04-01T08:38:54;4.00;;;0.90;;
61397;SDS011;47267;48.130;-2.040;2023-04-01T08:47:09;4.32;;;1.10;;
61397;SDS011;47267;48.130;-2.040;2023-04-01T08:49:51;4.88;;;1.10;;
61397;SDS011;47267;48.130;-2.040;2023-04-01T09:00:30;4.93;;;1.25;;
61397;SDS011;47267;48.130;-2.040;2023-04-01T09:14:30;3.65;;;0.90;;
61397;SDS011;47267;48.130;-2.040;2023-04-01T09:28:22;4.47;;;1.30;;
61397;SDS011;47267;48.130;-2.040;2023-04-01T09:33:56;5.90;;;1.20;;
61397;SDS011;47267;48.130;-2.040;2023-04-01T09:36:45;3.80;;;1.20;;
61397;SDS011;47267;48.130;-2.040;2023-04-01T09:42:46;4.18;;;1.30;;
61397;SDS011;47267;48.130;-2.040;2023-04-01T09:56:19;3.40;;;1.20;;
61397;SDS011;47267;48.130;-2.040;2023-04-01T10:04:30;5.03;;;1.00;;
61397;SDS011;47267;48.130;-2.040;2023-04-01T10:23:21;4.15;;;1.48;;
61397;SDS011;47267;48.130;-2.040;2023-04-01T10:31:33;5.47;;;1.52;;
61397;SDS011;47267;48.130;-2.040;2023-04-01T10:44:55;5.78;;;1.60;;
61397;SDS011;47267;48.130;-2.040;2023-04-01T11:04:54;9.93;;;4.13;;
61397;SDS011;47267;48.130;-2.040;2023-04-01T11:18:41;10.63;;;3.63;;
61397;SDS011;47267;48.130;-2.040;2023-04-01T11:29:39;8.30;;;3.13;;
61397;SDS011;47267;48.130;-2.040;2023-04-01T11:38:15;7.88;;;2.92;;
61397;SDS011;47267;48.130;-2.040;2023-04-01T11:43:46;7.82;;;3.33;;
61397;SDS011;47267;48.130;-2.040;2023-04-01T11:46:20;9.10;;;3.30;;
61397;SDS011;47267;48.130;-2.040;2023-04-01T11:51:38;6.47;;;2.88;;
61397;SDS011;47267;48.130;-2.040;2023-04-01T11:57:06;9.93;;;2.78;;
61397;SDS011;47267;48.130;-2.040;2023-04-01T12:05:40;7.40;;;3.00;;
61397;SDS011;47267;48.130;-2.040;2023-04-01T12:10:46;6.63;;;2.47;;
61397;SDS011;47267;48.130;-2.040;2023-04-01T12:39:17;4.97;;;2.25;;
61397;SDS011;47267;48.130;-2.040;2023-04-01T12:50:53;5.30;;;2.60;;
61397;SDS011;47267;48.130;-2.040;2023-04-01T12:59:19;5.55;;;2.42;;
61397;SDS011;47267;48.130;-2.040;2023-04-01T13:02:16;6.03;;;2.60;;
61397;SDS011;47267;48.130;-2.040;2023-04-01T13:05:01;6.35;;;2.33;;
61397;SDS011;47267;48.130;-2.040;2023-04-01T13:07:58;6.82;;;2.40;;
61397;SDS011;47267;48.130;-2.040;2023-04-01T13:10:51;5.03;;;2.22;;
61397;SDS011;47267;48.130;-2.040;2023-04-01T13:13:31;7.35;;;2.20;;
61397;SDS011;47267;48.130;-2.040;2023-04-01T13:16:10;6.07;;;2.20;;
61397;SDS011;47267;48.130;-2.040;2023-04-01T13:19:01;5.68;;;2.20;;
61397;SDS011;47267;48.130;-2.040;2023-04-01T13:21:54;5.95;;;2.15;;
61397;SDS011;47267;48.130;-2.040;2023-04-01T13:24:31;4.80;;;2.13;;
61397;SDS011;47267;48.130;-2.040;2023-04-01T13:52:47;6.53;;;2.20;;
61397;SDS011;47267;48.130;-2.040;2023-04-01T14:01:31;5.30;;;1.88;;
61397;SDS011;47267;48.130;-2.040;2023-04-01T14:04:16;4.82;;;2.05;;
61397;SDS011;47267;48.130;-2.040;2023-04-01T14:09:43;3.85;;;1.75;;
61397;SDS011;47267;48.130;-2.040;2023-04-01T14:17:50;5.13;;;1.80;;
61397;SDS011;47267;48.130;-2.040;2023-04-01T14:31:27;4.70;;;2.08;;
61397;SDS011;47267;48.130;-2.040;2023-04-01T14:44:57;5.22;;;2.03;;
61397;SDS011;47267;48.130;-2.040;2023-04-01T14:52:40;6.07;;;2.13;;
61397;SDS011;47267;48.130;-2.040;2023-04-01T14:55:31;5.13;;;1.38;;
61397;SDS011;47267;48.130;-2.040;2023-04-01T14:58:08;4.82;;;1.90;;
61397;SDS011;47267;48.130;-2.040;2023-04-01T15:03:46;5.22;;;1.85;;
61397;SDS011;47267;48.130;-2.040;2023-04-01T15:06:35;4.13;;;1.70;;
61397;SDS011;47267;48.130;-2.040;2023-04-01T15:09:40;5.57;;;1.73;;
61397;SDS011;47267;48.130;-2.040;2023-04-01T15:12:14;4.47;;;1.48;;
61397;SDS011;47267;48.130;-2.040;2023-04-01T15:21:06;4.07;;;1.55;;
61397;SDS011;47267;48.130;-2.040;2023-04-01T15:23:51;3.75;;;1.52;;
61397;SDS011;47267;48.130;-2.040;2023-04-01T15:26:22;6.22;;;1.63;;
61397;SDS011;47267;48.130;-2.040;2023-04-01T15:32:13;5.57;;;1.58;;
61397;SDS011;47267;48.130;-2.040;2023-04-01T15:34:57;5.80;;;1.70;;
61397;SDS011;47267;48.130;-2.040;2023-04-01T15:40:29;4.68;;;1.30;;
61397;SDS011;47267;48.130;-2.040;2023-04-01T15:43:36;4.53;;;1.38;;
61397;SDS011;47267;48.130;-2.040;2023-04-01T15:46:11;3.05;;;1.10;;
61397;SDS011;47267;48.130;-2.040;2023-04-01T15:56:49;5.15;;;1.45;;
61397;SDS011;47267;48.130;-2.040;2023-04-01T15:59:50;3.58;;;1.27;;
61397;SDS011;47267;48.130;-2.040;2023-04-01T16:05:03;3.30;;;1.60;;
61397;SDS011;47267;48.130;-2.040;2023-04-01T16:07:59;3.42;;;1.40;;
61397;SDS011;47267;48.130;-2.040;2023-04-01T16:15:59;4.55;;;1.70;;
61397;SDS011;47267;48.130;-2.040;2023-04-01T16:21:14;5.35;;;1.60;;
61397;SDS011;47267;48.130;-2.040;2023-04-01T16:24:03;4.10;;;1.52;;
61397;SDS011;47267;48.130;-2.040;2023-04-01T16:26:46;4.40;;;1.33;;
61397;SDS011;47267;48.130;-2.040;2023-04-01T16:37:22;5.13;;;1.77;;
61397;SDS011;47267;48.130;-2.040;2023-04-01T16:42:51;3.83;;;1.57;;
61397;SDS011;47267;48.130;-2.040;2023-04-01T16:48:13;3.85;;;1.60;;
61397;SDS011;47267;48.130;-2.040;2023-04-01T16:51:03;5.38;;;2.00;;
61397;SDS011;47267;48.130;-2.040;2023-04-01T16:53:47;3.00;;;1.70;;
61397;SDS011;47267;48.130;-2.040;2023-04-01T16:56:21;4.25;;;1.65;;
61397;SDS011;47267;48.130;-2.040;2023-04-01T17:04:29;5.47;;;1.77;;
61397;SDS011;47267;48.130;-2.040;2023-04-01T17:15:31;4.20;;;1.50;;
61397;SDS011;47267;48.130;-2.040;2023-04-01T17:18:18;4.55;;;1.90;;
61397;SDS011;47267;48.130;-2.040;2023-04-01T17:24:22;4.82;;;1.35;;
61397;SDS011;47267;48.130;-2.040;2023-04-01T17:35:16;4.43;;;1.77;;
61397;SDS011;47267;48.130;-2.040;2023-04-01T17:40:30;3.72;;;1.60;;
61397;SDS011;47267;48.130;-2.040;2023-04-01T17:43:41;2.95;;;1.67;;
61397;SDS011;47267;48.130;-2.040;2023-04-01T17:46:51;4.05;;;1.90;;
61397;SDS011;47267;48.130;-2.040;2023-04-01T17:54:37;4.07;;;1.58;;
61397;SDS011;47267;48.130;-2.040;2023-04-01T17:59:55;5.22;;;1.88;;
61397;SDS011;47267;48.130;-2.040;2023-04-01T18:02:31;4.35;;;1.90;;
61397;SDS011;47267;48.130;-2.040;2023-04-01T18:10:25;3.63;;;1.40;;
61397;SDS011;47267;48.130;-2.040;2023-04-01T18:21:15;4.47;;;1.30;;
61397;SDS011;47267;48.130;-2.040;2023-04-01T18:23:51;4.35;;;2.05;;
61397;SDS011;47267;48.130;-2.040;2023-04-01T18:26:28;6.03;;;1.80;;
61397;SDS011;47267;48.130;-2.040;2023-04-01T18:31:40;3.95;;;1.52;;
61397;SDS011;47267;48.130;-2.040;2023-04-01T18:34:20;3.38;;;1.30;;
61397;SDS011;47267;48.130;-2.040;2023-04-01T18:37:13;3.20;;;1.58;;
61397;SDS011;47267;48.130;-2.040;2023-04-01T18:40:10;4.38;;;1.70;;
61397;SDS011;47267;48.130;-2.040;2023-04-01T18:50:54;4.28;;;1.48;;
61397;SDS011;47267;48.130;-2.040;2023-04-01T18:53:28;4.55;;;1.40;;
61397;SDS011;47267;48.130;-2.040;2023-04-01T18:55:56;3.42;;;1.38;;
61397;SDS011;47267;48.130;-2.040;2023-04-01T18:58:26;2.78;;;1.10;;
61397;SDS011;47267;48.130;-2.040;2023-04-01T19:01:22;3.00;;;1.35;;
61397;SDS011;47267;48.130;-2.040;2023-04-01T19:09:18;3.38;;;1.30;;
61397;SDS011;47267;48.130;-2.040;2023-04-01T19:12:00;3.33;;;1.25;;
61397;SDS011;47267;48.130;-2.040;2023-04-01T19:14:56;3.08;;;1.60;;
61397;SDS011;47267;48.130;-2.040;2023-04-01T19:17:35;3.90;;;1.42;;
61397;SDS011;47267;48.130;-2.040;2023-04-01T19:20:22;3.35;;;1.13;;
61397;SDS011;47267;48.130;-2.040;2023-04-01T19:26:05;2.45;;;1.10;;
61397;SDS011;47267;48.130;-2.040;2023-04-01T19:28:56;2.30;;;1.23;;
61397;SDS011;47267;48.130;-2.040;2023-04-01T19:37:02;2.30;;;1.10;;
61397;SDS011;47267;48.130;-2.040;2023-04-01T19:39:46;2.97;;;1.10;;
61397;SDS011;47267;48.130;-2.040;2023-04-01T19:42:48;4.75;;;1.45;;
61397;SDS011;47267;48.130;-2.040;2023-04-01T19:51:06;3.60;;;1.40;;
61397;SDS011;47267;48.130;-2.040;2023-04-01T19:56:43;2.92;;;1.13;;
61397;SDS011;47267;48.130;-2.040;2023-04-01T19:59:20;3.28;;;1.30;;
61397;SDS011;47267;48.130;-2.040;2023-04-01T20:01:58;2.65;;;1.30;;
61397;SDS011;47267;48.130;-2.040;2023-04-01T20:04:48;3.92;;;1.10;;
61397;SDS011;47267;48.130;-2.040;2023-04-01T20:10:09;3.05;;;1.10;;
61397;SDS011;47267;48.130;-2.040;2023-04-01T20:12:43;3.13;;;0.93;;
61397;SDS011;47267;48.130;-2.040;2023-04-01T20:17:50;2.58;;;0.90;;
61397;SDS011;47267;48.130;-2.040;2023-04-01T20:25:20;2.72;;;1.10;;
61397;SDS011;47267;48.130;-2.040;2023-04-01T20:33:21;2.58;;;0.90;;
61397;SDS011;47267;48.130;-2.040;2023-04-01T20:39:08;2.10;;;0.95;;
61397;SDS011;47267;48.130;-2.040;2023-04-01T20:47:25;2.85;;;1.05;;
61397;SDS011;47267;48.130;-2.040;2023-04-01T20:50:11;2.80;;;1.05;;
61397;SDS011;47267;48.130;-2.040;2023-04-01T20:58:22;2.47;;;1.13;;
61397;SDS011;47267;48.130;-2.040;2023-04-01T21:09:05;2.80;;;1.05;;
61397;SDS011;47267;48.130;-2.040;2023-04-01T21:48:52;2.88;;;1.33;;
61397;SDS011;47267;48.130;-2.040;2023-04-01T22:00:13;2.78;;;1.17;;
61397;SDS011;47267;48.130;-2.040;2023-04-01T22:16:31;2.08;;;1.00;;
61397;SDS011;47267;48.130;-2.040;2023-04-01T22:19:41;3.38;;;1.30;;
61397;SDS011;47267;48.130;-2.040;2023-04-01T22:22:22;2.80;;;0.90;;
61397;SDS011;47267;48.130;-2.040;2023-04-01T22:25:11;2.80;;;1.02;;
61397;SDS011;47267;48.130;-2.040;2023-04-01T22:30:33;2.53;;;1.25;;
61397;SDS011;47267;48.130;-2.040;2023-04-01T22:33:05;3.28;;;1.10;;
61397;SDS011;47267;48.130;-2.040;2023-04-01T22:43:30;1.95;;;1.00;;
61397;SDS011;47267;48.130;-2.040;2023-04-01T22:46:05;2.50;;;1.02;;
61397;SDS011;47267;48.130;-2.040;2023-04-01T22:48:37;1.88;;;1.00;;
61397;SDS011;47267;48.130;-2.040;2023-04-01T22:54:05;2.47;;;1.10;;
61397;SDS011;47267;48.130;-2.040;2023-04-01T22:59:46;3.28;;;1.00;;
61397;SDS011;47267;48.130;-2.040;2023-04-01T23:02:27;2.60;;;0.98;;
61397;SDS011;47267;48.130;-2.040;2023-04-01T23:04:56;2.95;;;0.90;;
61397;SDS011;47267;48.130;-2.040;2023-04-01T23:10:22;2.83;;;1.02;;
61397;SDS011;47267;48.130;-2.040;2023-04-01T23:12:53;1.60;;;0.80;;
61397;SDS011;47267;48.130;-2.040;2023-04-01T23:23:26;3.08;;;1.30;;
61397;SDS011;47267;48.130;-2.040;2023-04-01T23:28:39;2.17;;;0.90;;
61397;SDS011;47267;48.130;-2.040;2023-04-01T23:33:57;3.20;;;1.23;;
61397;SDS011;47267;48.130;-2.040;2023-04-01T23:36:25;3.13;;;1.30;;
61397;SDS011;47267;48.130;-2.040;2023-04-01T23:38:52;2.10;;;1.02;;
61397;SDS011;47267;48.130;-2.040;2023-04-01T23:41:25;3.20;;;1.00;;
61397;SDS011;47267;48.130;-2.040;2023-04-01T23:44:05;2.67;;;1.02;;
61397;SDS011;47267;48.130;-2.040;2023-04-01T23:46:35;2.30;;;1.15;;
61397;SDS011;47267;48.130;-2.040;2023-04-01T23:49:04;2.30;;;1.10;;
61397;SDS011;47267;48.130;-2.040;2023-04-01T23:51:37;1.75;;;1.10;;
61397;SDS011;47267;48.130;-2.040;2023-04-01T23:54:24;2.42;;;1.05;;
61397;SDS011;47267;48.130;-2.040;2023-04-01T23:56:58;2.55;;;1.05;;
